sensor_id;sensor_type;location;lat;lon;timestamp;P1;durP1;ratioP1;P2;durP2;ratioP2
20348;SDS011;10332;50.208;18.988;2022-08-19T00:00:08;11.52;;;9.43;;
20348;SDS011;10332;50.208;18.988;2022-08-19T00:02:57;11.35;;;9.95;;
20348;SDS011;10332;50.208;18.988;2022-08-19T00:05:25;10.98;;;9.23;;
20348;SDS011;10332;50.208;18.988;2022-08-19T00:07:52;11.63;;;9.45;;
20348;SDS011;10332;50.208;18.988;2022-08-19T00:10:20;11.52;;;9.55;;
20348;SDS011;10332;50.208;18.988;2022-08-19T00:12:47;11.80;;;9.65;;
20348;SDS011;10332;50.208;18.988;2022-08-19T00:15:16;10.73;;;9.32;;
20348;SDS011;10332;50.208;18.988;2022-08-19T00:17:47;11.48;;;9.60;;
20348;SDS011;10332;50.208;18.988;2022-08-19T00:20:16;11.23;;;9.30;;
20348;SDS011;10332;50.208;18.988;2022-08-19T00:22:47;11.15;;;10.00;;
20348;SDS011;10332;50.208;18.988;2022-08-19T00:25:14;10.88;;;9.65;;
20348;SDS011;10332;50.208;18.988;2022-08-19T00:27:43;11.23;;;10.02;;
20348;SDS011;10332;50.208;18.988;2022-08-19T00:30:10;12.43;;;9.98;;
20348;SDS011;10332;50.208;18.988;2022-08-19T00:32:38;11.48;;;10.18;;
20348;SDS011;10332;50.208;18.988;2022-08-19T00:35:06;12.07;;;10.65;;
20348;SDS011;10332;50.208;18.988;2022-08-19T00:37:36;12.52;;;9.88;;
20348;SDS011;10332;50.208;18.988;2022-08-19T00:40:05;11.30;;;10.15;;
20348;SDS011;10332;50.208;18.988;2022-08-19T00:42:34;12.13;;;9.60;;
20348;SDS011;10332;50.208;18.988;2022-08-19T00:45:02;11.95;;;10.38;;
20348;SDS011;10332;50.208;18.988;2022-08-19T00:47:37;14.38;;;10.13;;
20348;SDS011;10332;50.208;18.988;2022-08-19T00:50:05;13.30;;;10.70;;
20348;SDS011;10332;50.208;18.988;2022-08-19T00:52:36;11.68;;;10.20;;
20348;SDS011;10332;50.208;18.988;2022-08-19T00:55:22;11.88;;;10.52;;
20348;SDS011;10332;50.208;18.988;2022-08-19T00:57:56;11.60;;;9.98;;
20348;SDS011;10332;50.208;18.988;2022-08-19T01:00:29;12.38;;;10.10;;
20348;SDS011;10332;50.208;18.988;2022-08-19T01:02:59;11.85;;;10.10;;
20348;SDS011;10332;50.208;18.988;2022-08-19T01:05:27;12.60;;;10.68;;
20348;SDS011;10332;50.208;18.988;2022-08-19T01:07:56;13.93;;;10.60;;
20348;SDS011;10332;50.208;18.988;2022-08-19T01:10:28;11.73;;;10.10;;
20348;SDS011;10332;50.208;18.988;2022-08-19T01:13:02;13.00;;;10.40;;
20348;SDS011;10332;50.208;18.988;2022-08-19T01:15:32;10.07;;;9.05;;
20348;SDS011;10332;50.208;18.988;2022-08-19T01:18:09;12.23;;;10.40;;
20348;SDS011;10332;50.208;18.988;2022-08-19T01:20:41;12.32;;;10.40;;
20348;SDS011;10332;50.208;18.988;2022-08-19T01:23:10;11.48;;;10.27;;
20348;SDS011;10332;50.208;18.988;2022-08-19T01:25:49;12.02;;;10.60;;
20348;SDS011;10332;50.208;18.988;2022-08-19T01:28:22;12.40;;;10.68;;
20348;SDS011;10332;50.208;18.988;2022-08-19T01:30:59;10.70;;;9.57;;
20348;SDS011;10332;50.208;18.988;2022-08-19T01:33:33;13.77;;;10.93;;
20348;SDS011;10332;50.208;18.988;2022-08-19T01:36:05;14.15;;;10.90;;
20348;SDS011;10332;50.208;18.988;2022-08-19T01:38:38;12.05;;;10.20;;
20348;SDS011;10332;50.208;18.988;2022-08-19T01:41:10;14.60;;;11.13;;
20348;SDS011;10332;50.208;18.988;2022-08-19T01:43:39;13.85;;;10.38;;
20348;SDS011;10332;50.208;18.988;2022-08-19T01:46:27;15.07;;;11.23;;
20348;SDS011;10332;50.208;18.988;2022-08-19T01:48:55;12.18;;;10.68;;
20348;SDS011;10332;50.208;18.988;2022-08-19T01:51:23;12.95;;;10.85;;
20348;SDS011;10332;50.208;18.988;2022-08-19T01:53:51;12.13;;;10.90;;
20348;SDS011;10332;50.208;18.988;2022-08-19T01:56:19;12.77;;;10.73;;
20348;SDS011;10332;50.208;18.988;2022-08-19T01:58:49;13.63;;;10.32;;
20348;SDS011;10332;50.208;18.988;2022-08-19T02:01:24;13.13;;;11.00;;
20348;SDS011;10332;50.208;18.988;2022-08-19T02:03:56;12.63;;;10.93;;
20348;SDS011;10332;50.208;18.988;2022-08-19T02:06:25;11.82;;;10.63;;
20348;SDS011;10332;50.208;18.988;2022-08-19T02:08:52;13.05;;;10.40;;
20348;SDS011;10332;50.208;18.988;2022-08-19T02:11:24;12.95;;;10.23;;
20348;SDS011;10332;50.208;18.988;2022-08-19T02:13:58;13.00;;;11.23;;
20348;SDS011;10332;50.208;18.988;2022-08-19T02:16:28;12.88;;;10.95;;
20348;SDS011;10332;50.208;18.988;2022-08-19T02:18:57;13.40;;;11.65;;
20348;SDS011;10332;50.208;18.988;2022-08-19T02:21:27;12.07;;;10.60;;
20348;SDS011;10332;50.208;18.988;2022-08-19T02:23:56;12.65;;;11.32;;
20348;SDS011;10332;50.208;18.988;2022-08-19T02:26:24;11.93;;;10.50;;
20348;SDS011;10332;50.208;18.988;2022-08-19T02:28:53;16.15;;;13.27;;
20348;SDS011;10332;50.208;18.988;2022-08-19T02:31:23;13.40;;;11.50;;
20348;SDS011;10332;50.208;18.988;2022-08-19T02:33:54;14.50;;;11.55;;
20348;SDS011;10332;50.208;18.988;2022-08-19T02:36:24;13.60;;;11.77;;
20348;SDS011;10332;50.208;18.988;2022-08-19T02:38:52;12.98;;;11.57;;
20348;SDS011;10332;50.208;18.988;2022-08-19T02:41:22;12.77;;;11.48;;
20348;SDS011;10332;50.208;18.988;2022-08-19T02:43:55;12.77;;;11.52;;
20348;SDS011;10332;50.208;18.988;2022-08-19T02:46:47;12.70;;;11.10;;
20348;SDS011;10332;50.208;18.988;2022-08-19T02:49:18;14.07;;;12.55;;
20348;SDS011;10332;50.208;18.988;2022-08-19T02:51:46;13.32;;;11.93;;
20348;SDS011;10332;50.208;18.988;2022-08-19T02:54:14;16.15;;;12.52;;
20348;SDS011;10332;50.208;18.988;2022-08-19T02:56:42;15.75;;;12.13;;
20348;SDS011;10332;50.208;18.988;2022-08-19T02:59:12;13.70;;;11.73;;
20348;SDS011;10332;50.208;18.988;2022-08-19T03:01:40;13.77;;;12.32;;
20348;SDS011;10332;50.208;18.988;2022-08-19T03:04:10;16.95;;;12.45;;
20348;SDS011;10332;50.208;18.988;2022-08-19T03:06:42;15.30;;;11.90;;
20348;SDS011;10332;50.208;18.988;2022-08-19T03:09:13;14.73;;;12.35;;
20348;SDS011;10332;50.208;18.988;2022-08-19T03:11:41;13.82;;;11.50;;
20348;SDS011;10332;50.208;18.988;2022-08-19T03:14:09;13.63;;;12.23;;
20348;SDS011;10332;50.208;18.988;2022-08-19T03:16:42;15.27;;;12.00;;
20348;SDS011;10332;50.208;18.988;2022-08-19T03:19:16;13.63;;;11.75;;
20348;SDS011;10332;50.208;18.988;2022-08-19T03:21:48;13.38;;;11.98;;
20348;SDS011;10332;50.208;18.988;2022-08-19T03:24:17;13.93;;;11.45;;
20348;SDS011;10332;50.208;18.988;2022-08-19T03:26:47;13.52;;;11.50;;
20348;SDS011;10332;50.208;18.988;2022-08-19T03:29:18;14.02;;;12.25;;
20348;SDS011;10332;50.208;18.988;2022-08-19T03:32:02;13.27;;;11.88;;
20348;SDS011;10332;50.208;18.988;2022-08-19T03:34:32;12.93;;;11.32;;
20348;SDS011;10332;50.208;18.988;2022-08-19T03:37:07;13.73;;;12.23;;
20348;SDS011;10332;50.208;18.988;2022-08-19T03:39:41;13.80;;;11.93;;
20348;SDS011;10332;50.208;18.988;2022-08-19T03:42:09;14.38;;;11.23;;
20348;SDS011;10332;50.208;18.988;2022-08-19T03:44:57;13.57;;;12.05;;
20348;SDS011;10332;50.208;18.988;2022-08-19T03:47:25;13.55;;;11.80;;
20348;SDS011;10332;50.208;18.988;2022-08-19T03:49:52;15.30;;;12.18;;
20348;SDS011;10332;50.208;18.988;2022-08-19T03:52:20;13.65;;;11.13;;
20348;SDS011;10332;50.208;18.988;2022-08-19T03:54:47;14.07;;;12.00;;
20348;SDS011;10332;50.208;18.988;2022-08-19T03:57:14;15.68;;;11.65;;
20348;SDS011;10332;50.208;18.988;2022-08-19T03:59:42;14.75;;;10.77;;
20348;SDS011;10332;50.208;18.988;2022-08-19T04:02:11;12.52;;;11.23;;
20348;SDS011;10332;50.208;18.988;2022-08-19T04:04:40;14.32;;;11.32;;
20348;SDS011;10332;50.208;18.988;2022-08-19T04:07:11;12.55;;;10.93;;
20348;SDS011;10332;50.208;18.988;2022-08-19T04:09:42;13.02;;;11.48;;
20348;SDS011;10332;50.208;18.988;2022-08-19T04:12:09;12.25;;;10.95;;
20348;SDS011;10332;50.208;18.988;2022-08-19T04:14:37;12.20;;;10.90;;
20348;SDS011;10332;50.208;18.988;2022-08-19T04:17:05;14.48;;;11.65;;
20348;SDS011;10332;50.208;18.988;2022-08-19T04:19:33;13.13;;;11.77;;
20348;SDS011;10332;50.208;18.988;2022-08-19T04:22:02;12.63;;;11.10;;
20348;SDS011;10332;50.208;18.988;2022-08-19T04:24:31;11.88;;;10.60;;
20348;SDS011;10332;50.208;18.988;2022-08-19T04:27:02;13.75;;;11.85;;
20348;SDS011;10332;50.208;18.988;2022-08-19T04:29:32;13.23;;;11.27;;
20348;SDS011;10332;50.208;18.988;2022-08-19T04:32:00;13.68;;;11.82;;
20348;SDS011;10332;50.208;18.988;2022-08-19T04:34:35;12.32;;;11.02;;
20348;SDS011;10332;50.208;18.988;2022-08-19T04:37:23;13.90;;;11.75;;
20348;SDS011;10332;50.208;18.988;2022-08-19T04:39:59;12.40;;;11.13;;
20348;SDS011;10332;50.208;18.988;2022-08-19T04:42:45;12.73;;;11.45;;
20348;SDS011;10332;50.208;18.988;2022-08-19T04:45:13;14.32;;;10.93;;
20348;SDS011;10332;50.208;18.988;2022-08-19T04:47:43;14.00;;;11.57;;
20348;SDS011;10332;50.208;18.988;2022-08-19T04:50:23;12.35;;;10.68;;
20348;SDS011;10332;50.208;18.988;2022-08-19T04:52:52;14.25;;;10.98;;
20348;SDS011;10332;50.208;18.988;2022-08-19T04:55:22;12.52;;;10.80;;
20348;SDS011;10332;50.208;18.988;2022-08-19T04:57:53;12.93;;;10.60;;
20348;SDS011;10332;50.208;18.988;2022-08-19T05:00:21;14.60;;;11.23;;
20348;SDS011;10332;50.208;18.988;2022-08-19T05:02:49;13.43;;;11.13;;
20348;SDS011;10332;50.208;18.988;2022-08-19T05:05:16;13.60;;;11.55;;
20348;SDS011;10332;50.208;18.988;2022-08-19T05:07:44;14.52;;;11.68;;
20348;SDS011;10332;50.208;18.988;2022-08-19T05:10:12;12.43;;;10.35;;
20348;SDS011;10332;50.208;18.988;2022-08-19T05:12:39;12.32;;;10.93;;
20348;SDS011;10332;50.208;18.988;2022-08-19T05:15:07;12.38;;;10.68;;
20348;SDS011;10332;50.208;18.988;2022-08-19T05:17:35;12.73;;;10.82;;
20348;SDS011;10332;50.208;18.988;2022-08-19T05:20:05;13.63;;;11.57;;
20348;SDS011;10332;50.208;18.988;2022-08-19T05:22:52;12.10;;;10.20;;
20348;SDS011;10332;50.208;18.988;2022-08-19T05:25:21;11.73;;;10.52;;
20348;SDS011;10332;50.208;18.988;2022-08-19T05:27:51;11.23;;;10.07;;
20348;SDS011;10332;50.208;18.988;2022-08-19T05:30:18;11.88;;;10.32;;
20348;SDS011;10332;50.208;18.988;2022-08-19T05:33:06;11.60;;;10.40;;
20348;SDS011;10332;50.208;18.988;2022-08-19T05:35:36;12.60;;;10.75;;
20348;SDS011;10332;50.208;18.988;2022-08-19T05:38:05;12.13;;;10.48;;
20348;SDS011;10332;50.208;18.988;2022-08-19T05:40:35;11.32;;;9.73;;
20348;SDS011;10332;50.208;18.988;2022-08-19T05:43:05;12.25;;;10.63;;
20348;SDS011;10332;50.208;18.988;2022-08-19T05:45:38;12.00;;;10.65;;
20348;SDS011;10332;50.208;18.988;2022-08-19T05:48:12;12.40;;;11.10;;
20348;SDS011;10332;50.208;18.988;2022-08-19T05:50:40;12.18;;;10.88;;
20348;SDS011;10332;50.208;18.988;2022-08-19T05:53:09;11.85;;;10.35;;
20348;SDS011;10332;50.208;18.988;2022-08-19T05:55:36;11.68;;;10.48;;
20348;SDS011;10332;50.208;18.988;2022-08-19T05:58:05;11.82;;;10.13;;
20348;SDS011;10332;50.208;18.988;2022-08-19T06:00:34;14.73;;;10.85;;
20348;SDS011;10332;50.208;18.988;2022-08-19T06:03:04;11.55;;;10.07;;
20348;SDS011;10332;50.208;18.988;2022-08-19T06:05:38;11.68;;;10.45;;
20348;SDS011;10332;50.208;18.988;2022-08-19T06:08:17;12.18;;;10.57;;
20348;SDS011;10332;50.208;18.988;2022-08-19T06:11:13;11.75;;;10.55;;
20348;SDS011;10332;50.208;18.988;2022-08-19T06:13:46;11.50;;;9.70;;
20348;SDS011;10332;50.208;18.988;2022-08-19T06:16:24;11.73;;;9.80;;
20348;SDS011;10332;50.208;18.988;2022-08-19T06:18:52;10.77;;;9.38;;
20348;SDS011;10332;50.208;18.988;2022-08-19T06:21:21;12.10;;;10.10;;
20348;SDS011;10332;50.208;18.988;2022-08-19T06:23:54;11.93;;;10.00;;
20348;SDS011;10332;50.208;18.988;2022-08-19T06:26:23;11.40;;;10.15;;
20348;SDS011;10332;50.208;18.988;2022-08-19T06:28:51;13.65;;;10.15;;
20348;SDS011;10332;50.208;18.988;2022-08-19T06:31:20;14.13;;;10.98;;
20348;SDS011;10332;50.208;18.988;2022-08-19T06:33:52;13.95;;;10.52;;
20348;SDS011;10332;50.208;18.988;2022-08-19T06:36:21;12.82;;;10.73;;
20348;SDS011;10332;50.208;18.988;2022-08-19T06:38:58;14.02;;;10.10;;
20348;SDS011;10332;50.208;18.988;2022-08-19T06:41:26;10.93;;;9.82;;
20348;SDS011;10332;50.208;18.988;2022-08-19T06:43:55;12.65;;;10.23;;
20348;SDS011;10332;50.208;18.988;2022-08-19T06:46:23;12.80;;;10.05;;
20348;SDS011;10332;50.208;18.988;2022-08-19T06:48:51;12.93;;;10.05;;
20348;SDS011;10332;50.208;18.988;2022-08-19T06:51:20;11.88;;;10.07;;
20348;SDS011;10332;50.208;18.988;2022-08-19T06:53:51;13.30;;;10.77;;
20348;SDS011;10332;50.208;18.988;2022-08-19T06:56:23;11.02;;;9.82;;
20348;SDS011;10332;50.208;18.988;2022-08-19T06:59:05;10.90;;;9.80;;
20348;SDS011;10332;50.208;18.988;2022-08-19T07:01:38;12.43;;;11.07;;
20348;SDS011;10332;50.208;18.988;2022-08-19T07:04:29;10.80;;;9.70;;
20348;SDS011;10332;50.208;18.988;2022-08-19T07:07:03;12.00;;;10.15;;
20348;SDS011;10332;50.208;18.988;2022-08-19T07:09:47;10.13;;;9.13;;
20348;SDS011;10332;50.208;18.988;2022-08-19T07:12:30;12.85;;;10.80;;
20348;SDS011;10332;50.208;18.988;2022-08-19T07:15:04;13.20;;;10.90;;
20348;SDS011;10332;50.208;18.988;2022-08-19T07:17:32;13.20;;;10.52;;
20348;SDS011;10332;50.208;18.988;2022-08-19T07:20:05;16.00;;;10.80;;
20348;SDS011;10332;50.208;18.988;2022-08-19T07:22:36;16.50;;;13.40;;
20348;SDS011;10332;50.208;18.988;2022-08-19T07:25:06;13.13;;;11.18;;
20348;SDS011;10332;50.208;18.988;2022-08-19T07:27:35;14.23;;;11.10;;
20348;SDS011;10332;50.208;18.988;2022-08-19T07:30:06;12.15;;;10.45;;
20348;SDS011;10332;50.208;18.988;2022-08-19T07:32:40;13.13;;;10.45;;
20348;SDS011;10332;50.208;18.988;2022-08-19T07:35:09;10.88;;;9.77;;
20348;SDS011;10332;50.208;18.988;2022-08-19T07:37:37;16.58;;;9.77;;
20348;SDS011;10332;50.208;18.988;2022-08-19T07:40:06;10.88;;;9.65;;
20348;SDS011;10332;50.208;18.988;2022-08-19T07:42:34;12.25;;;9.68;;
20348;SDS011;10332;50.208;18.988;2022-08-19T07:45:02;11.45;;;10.05;;
20348;SDS011;10332;50.208;18.988;2022-08-19T07:47:32;11.77;;;10.57;;
20348;SDS011;10332;50.208;18.988;2022-08-19T07:50:17;22.33;;;19.92;;
20348;SDS011;10332;50.208;18.988;2022-08-19T07:52:47;13.02;;;11.18;;
20348;SDS011;10332;50.208;18.988;2022-08-19T07:55:21;14.85;;;11.52;;
20348;SDS011;10332;50.208;18.988;2022-08-19T07:58:09;11.65;;;9.75;;
20348;SDS011;10332;50.208;18.988;2022-08-19T08:00:40;10.88;;;8.90;;
20348;SDS011;10332;50.208;18.988;2022-08-19T08:03:09;12.13;;;10.05;;
20348;SDS011;10332;50.208;18.988;2022-08-19T08:05:38;13.65;;;10.07;;
20348;SDS011;10332;50.208;18.988;2022-08-19T08:08:25;13.23;;;10.30;;
20348;SDS011;10332;50.208;18.988;2022-08-19T08:11:15;11.93;;;10.20;;
20348;SDS011;10332;50.208;18.988;2022-08-19T08:13:49;12.70;;;9.27;;
20348;SDS011;10332;50.208;18.988;2022-08-19T08:16:30;12.02;;;9.93;;
20348;SDS011;10332;50.208;18.988;2022-08-19T08:19:13;10.75;;;9.65;;
20348;SDS011;10332;50.208;18.988;2022-08-19T08:21:51;12.15;;;9.60;;
20348;SDS011;10332;50.208;18.988;2022-08-19T08:24:23;9.80;;;8.80;;
20348;SDS011;10332;50.208;18.988;2022-08-19T08:26:59;10.25;;;9.20;;
20348;SDS011;10332;50.208;18.988;2022-08-19T08:29:28;11.25;;;10.05;;
20348;SDS011;10332;50.208;18.988;2022-08-19T08:32:00;12.60;;;9.93;;
20348;SDS011;10332;50.208;18.988;2022-08-19T08:34:39;10.77;;;9.77;;
20348;SDS011;10332;50.208;18.988;2022-08-19T08:37:07;9.88;;;8.98;;
20348;SDS011;10332;50.208;18.988;2022-08-19T08:39:34;12.05;;;10.70;;
20348;SDS011;10332;50.208;18.988;2022-08-19T08:42:11;12.05;;;9.70;;
20348;SDS011;10332;50.208;18.988;2022-08-19T08:44:58;10.73;;;9.73;;
20348;SDS011;10332;50.208;18.988;2022-08-19T08:47:36;10.48;;;9.38;;
20348;SDS011;10332;50.208;18.988;2022-08-19T08:50:09;10.50;;;9.50;;
20348;SDS011;10332;50.208;18.988;2022-08-19T08:52:43;25.70;;;11.13;;
20348;SDS011;10332;50.208;18.988;2022-08-19T08:55:25;11.73;;;9.75;;
20348;SDS011;10332;50.208;18.988;2022-08-19T08:58:04;14.68;;;10.68;;
20348;SDS011;10332;50.208;18.988;2022-08-19T09:00:44;12.68;;;9.93;;
20348;SDS011;10332;50.208;18.988;2022-08-19T09:03:25;13.63;;;10.27;;
20348;SDS011;10332;50.208;18.988;2022-08-19T09:06:04;12.18;;;9.23;;
20348;SDS011;10332;50.208;18.988;2022-08-19T09:08:58;10.40;;;9.35;;
20348;SDS011;10332;50.208;18.988;2022-08-19T09:17:28;12.63;;;11.00;;
20348;SDS011;10332;50.208;18.988;2022-08-19T09:20:05;10.10;;;9.02;;
20348;SDS011;10332;50.208;18.988;2022-08-19T09:22:36;9.93;;;8.93;;
20348;SDS011;10332;50.208;18.988;2022-08-19T09:25:07;10.98;;;8.70;;
20348;SDS011;10332;50.208;18.988;2022-08-19T09:27:38;9.02;;;8.10;;
20348;SDS011;10332;50.208;18.988;2022-08-19T09:30:11;7.90;;;7.10;;
20348;SDS011;10332;50.208;18.988;2022-08-19T09:32:48;8.90;;;7.57;;
20348;SDS011;10332;50.208;18.988;2022-08-19T09:35:20;9.13;;;7.82;;
20348;SDS011;10332;50.208;18.988;2022-08-19T09:37:50;9.23;;;7.80;;
20348;SDS011;10332;50.208;18.988;2022-08-19T09:40:30;8.25;;;7.45;;
20348;SDS011;10332;50.208;18.988;2022-08-19T09:43:03;8.45;;;7.65;;
20348;SDS011;10332;50.208;18.988;2022-08-19T09:45:35;8.43;;;7.60;;
20348;SDS011;10332;50.208;18.988;2022-08-19T09:48:03;8.57;;;7.65;;
20348;SDS011;10332;50.208;18.988;2022-08-19T09:50:32;8.60;;;7.50;;
20348;SDS011;10332;50.208;18.988;2022-08-19T09:53:01;8.57;;;6.60;;
20348;SDS011;10332;50.208;18.988;2022-08-19T09:55:32;7.65;;;6.82;;
20348;SDS011;10332;50.208;18.988;2022-08-19T09:58:00;8.10;;;7.30;;
20348;SDS011;10332;50.208;18.988;2022-08-19T10:00:28;9.45;;;7.10;;
20348;SDS011;10332;50.208;18.988;2022-08-19T10:02:57;8.68;;;7.13;;
20348;SDS011;10332;50.208;18.988;2022-08-19T10:05:26;7.40;;;6.40;;
20348;SDS011;10332;50.208;18.988;2022-08-19T10:08:18;9.73;;;6.70;;
20348;SDS011;10332;50.208;18.988;2022-08-19T10:10:56;8.23;;;6.82;;
20348;SDS011;10332;50.208;18.988;2022-08-19T10:13:26;7.95;;;6.82;;
20348;SDS011;10332;50.208;18.988;2022-08-19T10:16:01;8.60;;;6.68;;
20348;SDS011;10332;50.208;18.988;2022-08-19T10:18:33;10.63;;;9.52;;
20348;SDS011;10332;50.208;18.988;2022-08-19T10:21:16;6.95;;;6.25;;
20348;SDS011;10332;50.208;18.988;2022-08-19T10:23:52;6.28;;;4.85;;
20348;SDS011;10332;50.208;18.988;2022-08-19T10:26:28;5.25;;;4.75;;
20348;SDS011;10332;50.208;18.988;2022-08-19T10:29:08;5.25;;;4.75;;
20348;SDS011;10332;50.208;18.988;2022-08-19T10:31:36;8.13;;;6.18;;
20348;SDS011;10332;50.208;18.988;2022-08-19T10:34:24;6.40;;;5.45;;
20348;SDS011;10332;50.208;18.988;2022-08-19T10:36:54;5.28;;;4.78;;
20348;SDS011;10332;50.208;18.988;2022-08-19T10:39:30;5.82;;;5.00;;
20348;SDS011;10332;50.208;18.988;2022-08-19T10:42:09;5.55;;;5.05;;
20348;SDS011;10332;50.208;18.988;2022-08-19T10:44:38;4.70;;;4.22;;
20348;SDS011;10332;50.208;18.988;2022-08-19T10:47:06;6.20;;;4.38;;
20348;SDS011;10332;50.208;18.988;2022-08-19T10:49:50;7.78;;;4.90;;
20348;SDS011;10332;50.208;18.988;2022-08-19T10:52:46;5.43;;;4.75;;
20348;SDS011;10332;50.208;18.988;2022-08-19T10:55:21;6.40;;;4.40;;
20348;SDS011;10332;50.208;18.988;2022-08-19T10:58:13;5.38;;;3.88;;
20348;SDS011;10332;50.208;18.988;2022-08-19T11:00:50;4.70;;;4.25;;
20348;SDS011;10332;50.208;18.988;2022-08-19T11:03:25;6.65;;;4.43;;
20348;SDS011;10332;50.208;18.988;2022-08-19T11:05:59;6.00;;;4.65;;
20348;SDS011;10332;50.208;18.988;2022-08-19T11:08:32;4.85;;;4.45;;
20348;SDS011;10332;50.208;18.988;2022-08-19T11:11:01;4.70;;;4.30;;
20348;SDS011;10332;50.208;18.988;2022-08-19T11:13:30;6.30;;;4.50;;
20348;SDS011;10332;50.208;18.988;2022-08-19T11:16:11;5.93;;;4.60;;
20348;SDS011;10332;50.208;18.988;2022-08-19T11:18:43;6.18;;;4.47;;
20348;SDS011;10332;50.208;18.988;2022-08-19T11:21:20;5.53;;;4.50;;
20348;SDS011;10332;50.208;18.988;2022-08-19T11:23:55;6.75;;;4.85;;
20348;SDS011;10332;50.208;18.988;2022-08-19T11:26:26;5.80;;;5.22;;
20348;SDS011;10332;50.208;18.988;2022-08-19T11:28:57;5.63;;;4.90;;
20348;SDS011;10332;50.208;18.988;2022-08-19T11:31:27;7.93;;;5.07;;
20348;SDS011;10332;50.208;18.988;2022-08-19T11:33:58;5.45;;;4.40;;
20348;SDS011;10332;50.208;18.988;2022-08-19T11:36:30;5.80;;;4.57;;
20348;SDS011;10332;50.208;18.988;2022-08-19T11:38:59;6.85;;;4.97;;
20348;SDS011;10332;50.208;18.988;2022-08-19T11:41:29;5.25;;;4.25;;
20348;SDS011;10332;50.208;18.988;2022-08-19T11:43:56;6.45;;;5.13;;
20348;SDS011;10332;50.208;18.988;2022-08-19T11:46:24;4.00;;;3.60;;
20348;SDS011;10332;50.208;18.988;2022-08-19T11:48:56;6.07;;;4.18;;
20348;SDS011;10332;50.208;18.988;2022-08-19T11:51:27;4.88;;;4.38;;
20348;SDS011;10332;50.208;18.988;2022-08-19T11:53:56;7.07;;;4.72;;
20348;SDS011;10332;50.208;18.988;2022-08-19T11:56:26;5.47;;;4.70;;
20348;SDS011;10332;50.208;18.988;2022-08-19T11:58:54;6.30;;;5.00;;
20348;SDS011;10332;50.208;18.988;2022-08-19T12:01:25;5.53;;;4.57;;
20348;SDS011;10332;50.208;18.988;2022-08-19T12:03:54;5.40;;;4.35;;
20348;SDS011;10332;50.208;18.988;2022-08-19T12:06:25;6.30;;;4.80;;
20348;SDS011;10332;50.208;18.988;2022-08-19T12:08:57;5.13;;;4.63;;
20348;SDS011;10332;50.208;18.988;2022-08-19T12:11:28;10.38;;;9.25;;
20348;SDS011;10332;50.208;18.988;2022-08-19T12:14:00;6.78;;;4.82;;
20348;SDS011;10332;50.208;18.988;2022-08-19T12:16:28;6.15;;;5.40;;
20348;SDS011;10332;50.208;18.988;2022-08-19T12:18:58;6.93;;;6.20;;
20348;SDS011;10332;50.208;18.988;2022-08-19T12:21:31;6.38;;;5.38;;
20348;SDS011;10332;50.208;18.988;2022-08-19T12:24:03;5.97;;;4.97;;
20348;SDS011;10332;50.208;18.988;2022-08-19T12:26:32;8.98;;;5.30;;
20348;SDS011;10332;50.208;18.988;2022-08-19T12:29:18;5.18;;;4.70;;
20348;SDS011;10332;50.208;18.988;2022-08-19T12:31:49;6.47;;;5.20;;
20348;SDS011;10332;50.208;18.988;2022-08-19T12:34:17;7.70;;;5.13;;
20348;SDS011;10332;50.208;18.988;2022-08-19T12:36:46;6.82;;;5.13;;
20348;SDS011;10332;50.208;18.988;2022-08-19T12:39:16;7.50;;;5.20;;
20348;SDS011;10332;50.208;18.988;2022-08-19T12:41:43;5.07;;;4.57;;
20348;SDS011;10332;50.208;18.988;2022-08-19T12:44:20;6.00;;;5.35;;
20348;SDS011;10332;50.208;18.988;2022-08-19T12:46:55;7.88;;;5.07;;
20348;SDS011;10332;50.208;18.988;2022-08-19T12:49:24;7.07;;;5.15;;
20348;SDS011;10332;50.208;18.988;2022-08-19T12:52:11;6.63;;;4.63;;
20348;SDS011;10332;50.208;18.988;2022-08-19T12:54:48;5.50;;;4.53;;
20348;SDS011;10332;50.208;18.988;2022-08-19T12:57:20;6.90;;;4.80;;
20348;SDS011;10332;50.208;18.988;2022-08-19T13:00:06;8.15;;;5.13;;
20348;SDS011;10332;50.208;18.988;2022-08-19T13:02:41;8.00;;;5.03;;
20348;SDS011;10332;50.208;18.988;2022-08-19T13:05:17;5.07;;;4.47;;
20348;SDS011;10332;50.208;18.988;2022-08-19T13:07:49;10.00;;;5.18;;
20348;SDS011;10332;50.208;18.988;2022-08-19T13:10:23;6.53;;;4.75;;
20348;SDS011;10332;50.208;18.988;2022-08-19T13:12:54;7.07;;;5.10;;
20348;SDS011;10332;50.208;18.988;2022-08-19T13:15:26;7.85;;;5.22;;
20348;SDS011;10332;50.208;18.988;2022-08-19T13:17:54;6.85;;;5.07;;
20348;SDS011;10332;50.208;18.988;2022-08-19T13:20:23;10.63;;;5.65;;
20348;SDS011;10332;50.208;18.988;2022-08-19T13:22:53;7.07;;;5.13;;
20348;SDS011;10332;50.208;18.988;2022-08-19T13:25:21;5.80;;;4.65;;
20348;SDS011;10332;50.208;18.988;2022-08-19T13:27:49;6.55;;;5.25;;
20348;SDS011;10332;50.208;18.988;2022-08-19T13:30:18;8.70;;;5.22;;
20348;SDS011;10332;50.208;18.988;2022-08-19T13:33:06;8.55;;;5.28;;
20348;SDS011;10332;50.208;18.988;2022-08-19T13:35:38;6.28;;;5.50;;
20348;SDS011;10332;50.208;18.988;2022-08-19T13:38:09;5.80;;;5.25;;
20348;SDS011;10332;50.208;18.988;2022-08-19T13:40:38;5.75;;;5.13;;
20348;SDS011;10332;50.208;18.988;2022-08-19T13:43:08;8.60;;;5.40;;
20348;SDS011;10332;50.208;18.988;2022-08-19T13:45:49;6.97;;;5.35;;
20348;SDS011;10332;50.208;18.988;2022-08-19T13:48:23;6.97;;;5.57;;
20348;SDS011;10332;50.208;18.988;2022-08-19T13:50:53;10.02;;;6.28;;
20348;SDS011;10332;50.208;18.988;2022-08-19T13:53:21;6.47;;;5.25;;
20348;SDS011;10332;50.208;18.988;2022-08-19T13:55:50;8.48;;;5.30;;
20348;SDS011;10332;50.208;18.988;2022-08-19T13:58:17;8.15;;;5.55;;
20348;SDS011;10332;50.208;18.988;2022-08-19T14:00:46;6.47;;;5.00;;
20348;SDS011;10332;50.208;18.988;2022-08-19T14:03:13;6.68;;;4.93;;
20348;SDS011;10332;50.208;18.988;2022-08-19T14:05:41;8.00;;;5.57;;
20348;SDS011;10332;50.208;18.988;2022-08-19T14:08:08;6.90;;;4.75;;
20348;SDS011;10332;50.208;18.988;2022-08-19T14:10:36;6.10;;;4.82;;
20348;SDS011;10332;50.208;18.988;2022-08-19T14:13:04;7.43;;;5.25;;
20348;SDS011;10332;50.208;18.988;2022-08-19T14:15:31;8.20;;;5.10;;
20348;SDS011;10332;50.208;18.988;2022-08-19T14:17:59;9.90;;;5.40;;
20348;SDS011;10332;50.208;18.988;2022-08-19T14:20:26;6.60;;;5.00;;
20348;SDS011;10332;50.208;18.988;2022-08-19T14:22:54;9.00;;;5.18;;
20348;SDS011;10332;50.208;18.988;2022-08-19T14:25:23;8.35;;;5.60;;
20348;SDS011;10332;50.208;18.988;2022-08-19T14:27:54;6.35;;;4.85;;
20348;SDS011;10332;50.208;18.988;2022-08-19T14:30:31;7.85;;;4.55;;
20348;SDS011;10332;50.208;18.988;2022-08-19T14:33:01;7.80;;;5.22;;
20348;SDS011;10332;50.208;18.988;2022-08-19T14:35:31;6.30;;;4.93;;
20348;SDS011;10332;50.208;18.988;2022-08-19T14:38:02;6.15;;;5.00;;
20348;SDS011;10332;50.208;18.988;2022-08-19T14:40:32;6.75;;;5.05;;
20348;SDS011;10332;50.208;18.988;2022-08-19T14:43:02;6.95;;;4.93;;
20348;SDS011;10332;50.208;18.988;2022-08-19T14:45:32;6.93;;;4.90;;
20348;SDS011;10332;50.208;18.988;2022-08-19T14:48:07;9.07;;;5.10;;
20348;SDS011;10332;50.208;18.988;2022-08-19T14:50:44;5.95;;;4.57;;
20348;SDS011;10332;50.208;18.988;2022-08-19T14:53:12;6.35;;;4.45;;
20348;SDS011;10332;50.208;18.988;2022-08-19T14:55:43;5.55;;;4.40;;